Pearl Of Scandinavia — OWFU2 — position and weather

sailwx.info

Track history (hours):
 
Tides and Currents Weather Stations Pressure Air Temp Water Temp Dewpoint Dewpoint Depression Visibility Wind Speed Wind Dir Waves Ship Positions

Pearl Of Scandinavia

Last reported at 2016-May-25 02:33 UTC. Time now 2016-May-25 03:20 UTC.
Position N 58°39' E 010°48'.

Length 176.4 m; beam 34 m; draft 6.215 m.

Type: Ship. MMSI: 219945000.

Date/timePositionNaut miles runAvg speedWind from/ knotsBaromVisibWave heightAir tempDewpointWater temp
2016-May-25 02:33N 58°39' E 010°48'1717.0
2016-May-25 01:33N 58°22' E 010°58'1615.6
2016-May-25 00:33N 58°08' E 011°09'1414.1
2016-May-24 23:33N 57°54' E 011°14'1616.2
2016-May-24 22:33N 57°39' E 011°23'1616.2
2016-May-24 21:33N 57°23' E 011°32'1615.7
2016-May-24 20:33N 57°08' E 011°40'1615.6
2016-May-24 19:33N 56°53' E 011°50'1615.7
2016-May-24 18:33N 56°40' E 012°05'1615.9
2016-May-24 17:33N 56°26' E 012°18'1616.3
2016-May-24 16:33N 56°11' E 012°30'1615.9
2016-May-24 15:33N 55°57' E 012°43'1414.5
2016-May-24 14:34N 55°43' E 012°37'1 0.9
2016-May-24 13:31N 55°42' E 012°36'0 0.0
2016-May-24 12:31N 55°42' E 012°36'0 0.0
2016-May-24 11:31N 55°42' E 012°36'0 0.0
2016-May-24 10:31N 55°42' E 012°36'0 0.0
2016-May-24 09:31N 55°42' E 012°36'0 0.0
2016-May-24 08:31N 55°42' E 012°36'1 1.1
2016-May-24 07:33N 55°43' E 012°37'1110.6
2016-May-24 06:34N 55°53' E 012°40'1414.0
2016-May-24 05:34N 56°07' E 012°33'1615.1
2016-May-24 04:30N 56°21' E 012°21'1415.3
2016-May-24 03:34N 56°35' E 012°13'1616.5
2016-May-24 02:34N 56°51' E 012°05'1616.0
2016-May-24 01:34N 57°06' E 011°56'1716.5
2016-May-24 00:34N 57°21' E 011°44'1616.3
2016-May-23 23:34N 57°35' E 011°27'1716.8
2016-May-23 22:34N 57°51' E 011°16'1717.1
2016-May-23 21:34N 58°07' E 011°08'1616.4
2016-May-23 20:34N 58°23' E 010°58'1616.3
2016-May-23 19:34N 58°38' E 010°49'1616.4
2016-May-23 18:34N 58°54' E 010°43'1616.3
2016-May-23 17:34N 59°10' E 010°38'1616.2
2016-May-23 16:34N 59°26' E 010°33'1413.6
2016-May-23 15:34N 59°40' E 010°37'14 1.7
2016-May-23 07:20N 59°53' E 010°41'1114.0
2016-May-23 06:33N 59°43' E 010°35'1414.0
2016-May-23 05:33N 59°29' E 010°35'1616.0
2016-May-23 04:33N 59°13' E 010°38'1616.3
2016-May-23 03:33N 58°57' E 010°37'1616.1
2016-May-23 02:34N 58°41' E 010°33'1615.8
2016-May-23 01:33N 58°26' E 010°41'1616.2
2016-May-23 00:33N 58°10' E 010°51'1616.1
2016-May-22 23:33N 57°55' E 011°01'1615.8
2016-May-22 22:33N 57°41' E 011°15'1615.8
2016-May-22 21:33N 57°27' E 011°29'1616.1
2016-May-22 20:33N 57°12' E 011°38'1716.6
2016-May-22 19:33N 56°56' E 011°49'1616.1
2016-May-22 18:33N 56°42' E 012°03'1615.9
2016-May-22 17:33N 56°28' E 012°16'1717.1
2016-May-22 16:33N 56°13' E 012°28'1817.8
2016-May-22 15:33N 55°57' E 012°43'1514.8
2016-May-22 14:33N 55°42' E 012°37'0 0.5
2016-May-22 13:32N 55°42' E 012°36'0 0.0
2016-May-22 12:32N 55°42' E 012°36'0 0.0
2016-May-22 11:32N 55°42' E 012°36'0 0.0
2016-May-22 10:32N 55°42' E 012°36'0 0.0
2016-May-22 09:32N 55°42' E 012°36'0 0.0
2016-May-22 08:32N 55°42' E 012°36'0 0.3
2016-May-22 07:32N 55°42' E 012°36'1212.0
2016-May-22 06:33N 55°54' E 012°40'1413.9
2016-May-22 05:33N 56°07' E 012°32'3115.1
2016-May-22 03:30N 56°36' E 012°13'1515.9
2016-May-22 02:33N 56°50' E 012°05'1615.7
2016-May-22 01:33N 57°06' E 011°56'1616.2
2016-May-22 00:33N 57°20' E 011°43'1616.5
2016-May-21 23:33N 57°35' E 011°29'1716.9
2016-May-21 22:33N 57°50' E 011°16'1716.8
2016-May-21 21:34N 58°06' E 011°07'1716.8
2016-May-21 20:33N 58°22' E 010°58'1616.2
2016-May-21 19:33N 58°38' E 010°50'1616.1
2016-May-21 18:33N 58°54' E 010°43'1616.2
2016-May-21 17:33N 59°10' E 010°38'1716.7
2016-May-21 16:33N 59°26' E 010°33'1414.5
2016-May-21 15:34N 59°41' E 010°37'13 1.6
2016-May-21 07:20N 59°53' E 010°41'1013.5
2016-May-21 06:33N 59°43' E 010°35'1414.2
2016-May-21 05:33N 59°29' E 010°35'1616.4
2016-May-21 04:34N 59°13' E 010°38'1616.2
2016-May-21 03:33N 58°57' E 010°43'1615.9
2016-May-21 02:33N 58°41' E 010°46'1616.2
2016-May-21 01:33N 58°26' E 010°55'1616.1
2016-May-21 00:34N 58°10' E 011°05'1615.9
2016-May-20 23:33N 57°55' E 011°15'1615.9
2016-May-20 22:33N 57°41' E 011°25'1615.6
2016-May-20 21:34N 57°25' E 011°31'1615.5
2016-May-20 20:33N 57°11' E 011°40'1616.1
2016-May-20 19:33N 56°55' E 011°49'1616.1
2016-May-20 18:33N 56°41' E 012°04'1616.2
2016-May-20 17:33N 56°27' E 012°17'1716.5
2016-May-20 16:33N 56°12' E 012°29'1717.1
2016-May-20 15:34N 55°57' E 012°43'1514.8
2016-May-20 14:33N 55°42' E 012°36'0 0.4
2016-May-20 13:32N 55°42' E 012°36'0 0.0
2016-May-20 12:32N 55°42' E 012°36'0 0.0
2016-May-20 11:32N 55°42' E 012°36'0 0.0
2016-May-20 10:32N 55°42' E 012°36'0 0.0
2016-May-20 09:32N 55°42' E 012°36'0 0.0
2016-May-20 08:32N 55°42' E 012°36'0 0.3
2016-May-20 07:34N 55°42' E 012°36'1212.2
2016-May-20 06:33N 55°54' E 012°39'1313.3
2016-May-20 05:33N 56°07' E 012°32'2114.9
2016-May-20 04:11N 56°26' E 012°18'1015.3
2016-May-20 03:34N 56°35' E 012°13'1615.9
2016-May-20 02:34N 56°50' E 012°04'1616.0
2016-May-20 01:33N 57°06' E 011°55'1616.1
2016-May-20 00:34N 57°21' E 011°44'1717.0
2016-May-19 23:34N 57°35' E 011°27'1817.6
2016-May-19 22:34N 57°51' E 011°16'1716.9
2016-May-19 21:34N 58°08' E 011°07'1716.6
2016-May-19 20:34N 58°23' E 010°58'1716.6
2016-May-19 19:34N 58°39' E 010°49'1716.9
2016-May-19 18:34N 58°56' E 010°43'1716.7
2016-May-19 17:34N 59°13' E 010°37'1616.0
2016-May-19 16:33N 59°28' E 010°34'1413.9
2016-May-19 15:33N 59°42' E 010°35'11 1.4
2016-May-19 07:18N 59°53' E 010°41'1013.9
2016-May-19 06:34N 59°44' E 010°34'1414.5
2016-May-19 05:34N 59°29' E 010°35'1716.6
2016-May-19 04:34N 59°13' E 010°38'1616.4
2016-May-19 03:34N 58°56' E 010°37'1616.2
2016-May-19 02:34N 58°40' E 010°33'1616.1
2016-May-19 01:34N 58°25' E 010°41'1616.4
2016-May-19 00:34N 58°09' E 010°52'1716.9
2016-May-18 23:34N 57°53' E 011°02'1616.0
2016-May-18 22:34N 57°39' E 011°15'1515.4
2016-May-18 21:34N 57°26' E 011°31'1616.2
2016-May-18 20:34N 57°10' E 011°39'1616.1
2016-May-18 19:34N 56°55' E 011°49'1615.9
2016-May-18 18:34N 56°41' E 012°03'1615.6
2016-May-18 17:34N 56°27' E 012°16'1716.8
2016-May-18 16:33N 56°12' E 012°29'1716.6
2016-May-18 15:34N 55°57' E 012°43'1514.9
2016-May-18 14:33N 55°43' E 012°37'1 1.1
2016-May-18 13:31N 55°42' E 012°36'0 0.0
2016-May-18 12:31N 55°42' E 012°36'0 0.0
2016-May-18 11:31N 55°42' E 012°36'0 0.0
2016-May-18 10:31N 55°42' E 012°36'0 0.0
2016-May-18 09:31N 55°42' E 012°36'0 0.0
2016-May-18 08:31N 55°42' E 012°36'0 0.3
2016-May-18 07:33N 55°42' E 012°36'1110.5
2016-May-18 06:34N 55°53' E 012°40'1414.2
2016-May-18 05:33N 56°06' E 012°33'3215.9
2016-May-18 03:34N 56°36' E 012°15'1716.6
2016-May-18 02:34N 56°53' E 012°07'1616.3
2016-May-18 01:34N 57°08' E 011°57'1616.1
2016-May-18 00:34N 57°22' E 011°42'1717.1
2016-May-17 23:34N 57°37' E 011°27'1717.3
2016-May-17 22:34N 57°53' E 011°15'1616.4
2016-May-17 21:34N 58°09' E 011°06'1616.4
2016-May-17 20:33N 58°24' E 010°57'1616.3
2016-May-17 19:34N 58°40' E 010°48'1817.7
2016-May-17 18:34N 58°57' E 010°42'1717.2
2016-May-17 17:34N 59°14' E 010°37'1716.9
2016-May-17 16:34N 59°31' E 010°36'1515.4
2016-May-17 15:33N 59°47' E 010°33'8 0.9
2016-May-17 07:08N 59°54' E 010°41'916.3
2016-May-17 06:33N 59°45' E 010°35'1413.5
2016-May-17 05:33N 59°31' E 010°35'1616.2
2016-May-17 04:33N 59°15' E 010°38'1716.6
2016-May-17 03:33N 58°59' E 010°42'1515.4
2016-May-17 02:33N 58°43' E 010°47'1615.9
2016-May-17 01:33N 58°28' E 010°54'1616.2
2016-May-17 00:33N 58°12' E 011°03'1615.8
2016-May-16 23:33N 57°57' E 011°12'1616.1
2016-May-16 22:33N 57°42' E 011°21'1616.5
2016-May-16 21:34N 57°26' E 011°30'1716.8
2016-May-16 20:33N 57°10' E 011°40'1717.5
2016-May-16 19:33N 56°54' E 011°50'1717.3
2016-May-16 18:33N 56°39' E 012°07'1817.1
2016-May-16 17:29N 56°22' E 012°21'1516.5
2016-May-16 16:33N 56°08' E 012°32'1414.4
2016-May-16 15:33N 55°56' E 012°44'1313.2
2016-May-16 14:33N 55°43' E 012°38'1 1.3
2016-May-16 13:31N 55°42' E 012°36'0 0.0
2016-May-16 12:31N 55°42' E 012°36'0 0.0
2016-May-16 11:31N 55°42' E 012°36'0 0.0
2016-May-16 10:31N 55°42' E 012°36'0 0.0
2016-May-16 09:31N 55°42' E 012°36'0 0.0
2016-May-16 08:31N 55°42' E 012°36'1 0.8
2016-May-16 07:33N 55°43' E 012°37'1111.3
2016-May-16 06:33N 55°54' E 012°40'1413.8
2016-May-16 05:34N 56°07' E 012°32'3215.8
2016-May-16 03:33N 56°37' E 012°13'1616.1
2016-May-16 02:33N 56°52' E 012°05'1615.9
2016-May-16 01:33N 57°08' E 011°56'1616.0
2016-May-16 00:34N 57°22' E 011°42'1615.9
2016-May-15 23:33N 57°35' E 011°26'1616.1
2016-May-15 22:33N 57°50' E 011°14'1616.0
2016-May-15 21:33N 58°05' E 011°08'1616.1
2016-May-15 20:33N 58°21' E 010°59'1616.2
2016-May-15 19:34N 58°36' E 010°50'1616.1
2016-May-15 18:33N 58°52' E 010°44'1716.7
2016-May-15 17:34N 59°09' E 010°39'1717.4
2016-May-15 16:33N 59°26' E 010°33'1515.5
2016-May-15 15:34N 59°41' E 010°36'13 1.5
2016-May-15 07:21N 59°53' E 010°41'1114.0
2016-May-15 06:33N 59°43' E 010°35'1414.4
2016-May-15 05:33N 59°28' E 010°34'1615.9
2016-May-15 04:34N 59°13' E 010°39'1615.6
2016-May-15 03:34N 58°57' E 010°42'1515.2
2016-May-15 02:34N 58°42' E 010°45'  
Track history (hours):
 
Tides and Currents Weather Stations Pressure Air Temp Water Temp Dewpoint Dewpoint Depression Visibility Wind Speed Wind Dir Waves Ship Positions

Pearl Of Scandinavia

Last reported at 2016-May-25 02:33 UTC. Time now 2016-May-25 03:20 UTC.
Position N 58°39' E 010°48'.

Length 176.4 m; beam 34 m; draft 6.215 m.

Type: Ship. MMSI: 219945000.

Date/timePositionNaut miles runAvg speedWind from/ knotsBaromVisibWave heightAir tempDewpointWater temp
2016-May-25 02:33N 58°39' E 010°48'1717.0
2016-May-25 01:33N 58°22' E 010°58'1615.6
2016-May-25 00:33N 58°08' E 011°09'1414.1
2016-May-24 23:33N 57°54' E 011°14'1616.2
2016-May-24 22:33N 57°39' E 011°23'1616.2
2016-May-24 21:33N 57°23' E 011°32'1615.7
2016-May-24 20:33N 57°08' E 011°40'1615.6
2016-May-24 19:33N 56°53' E 011°50'1615.7
2016-May-24 18:33N 56°40' E 012°05'1615.9
2016-May-24 17:33N 56°26' E 012°18'1616.3
2016-May-24 16:33N 56°11' E 012°30'1615.9
2016-May-24 15:33N 55°57' E 012°43'1414.5
2016-May-24 14:34N 55°43' E 012°37'1 0.9
2016-May-24 13:31N 55°42' E 012°36'0 0.0
2016-May-24 12:31N 55°42' E 012°36'0 0.0
2016-May-24 11:31N 55°42' E 012°36'0 0.0
2016-May-24 10:31N 55°42' E 012°36'0 0.0
2016-May-24 09:31N 55°42' E 012°36'0 0.0
2016-May-24 08:31N 55°42' E 012°36'1 1.1
2016-May-24 07:33N 55°43' E 012°37'1110.6
2016-May-24 06:34N 55°53' E 012°40'1414.0
2016-May-24 05:34N 56°07' E 012°33'1615.1
2016-May-24 04:30N 56°21' E 012°21'1415.3
2016-May-24 03:34N 56°35' E 012°13'1616.5
2016-May-24 02:34N 56°51' E 012°05'1616.0
2016-May-24 01:34N 57°06' E 011°56'1716.5
2016-May-24 00:34N 57°21' E 011°44'1616.3
2016-May-23 23:34N 57°35' E 011°27'1716.8
2016-May-23 22:34N 57°51' E 011°16'1717.1
2016-May-23 21:34N 58°07' E 011°08'1616.4
2016-May-23 20:34N 58°23' E 010°58'1616.3
2016-May-23 19:34N 58°38' E 010°49'1616.4
2016-May-23 18:34N 58°54' E 010°43'1616.3
2016-May-23 17:34N 59°10' E 010°38'1616.2
2016-May-23 16:34N 59°26' E 010°33'1413.6
2016-May-23 15:34N 59°40' E 010°37'14 1.7
2016-May-23 07:20N 59°53' E 010°41'1114.0
2016-May-23 06:33N 59°43' E 010°35'1414.0
2016-May-23 05:33N 59°29' E 010°35'1616.0
2016-May-23 04:33N 59°13' E 010°38'1616.3
2016-May-23 03:33N 58°57' E 010°37'1616.1
2016-May-23 02:34N 58°41' E 010°33'1615.8
2016-May-23 01:33N 58°26' E 010°41'1616.2
2016-May-23 00:33N 58°10' E 010°51'1616.1
2016-May-22 23:33N 57°55' E 011°01'1615.8
2016-May-22 22:33N 57°41' E 011°15'1615.8
2016-May-22 21:33N 57°27' E 011°29'1616.1
2016-May-22 20:33N 57°12' E 011°38'1716.6
2016-May-22 19:33N 56°56' E 011°49'1616.1
2016-May-22 18:33N 56°42' E 012°03'1615.9
2016-May-22 17:33N 56°28' E 012°16'1717.1
2016-May-22 16:33N 56°13' E 012°28'1817.8
2016-May-22 15:33N 55°57' E 012°43'1514.8
2016-May-22 14:33N 55°42' E 012°37'0 0.5
2016-May-22 13:32N 55°42' E 012°36'0 0.0
2016-May-22 12:32N 55°42' E 012°36'0 0.0
2016-May-22 11:32N 55°42' E 012°36'0 0.0
2016-May-22 10:32N 55°42' E 012°36'0 0.0
2016-May-22 09:32N 55°42' E 012°36'0 0.0
2016-May-22 08:32N 55°42' E 012°36'0 0.3
2016-May-22 07:32N 55°42' E 012°36'1212.0
2016-May-22 06:33N 55°54' E 012°40'1413.9
2016-May-22 05:33N 56°07' E 012°32'3115.1
2016-May-22 03:30N 56°36' E 012°13'1515.9
2016-May-22 02:33N 56°50' E 012°05'1615.7
2016-May-22 01:33N 57°06' E 011°56'1616.2
2016-May-22 00:33N 57°20' E 011°43'1616.5
2016-May-21 23:33N 57°35' E 011°29'1716.9
2016-May-21 22:33N 57°50' E 011°16'1716.8
2016-May-21 21:34N 58°06' E 011°07'1716.8
2016-May-21 20:33N 58°22' E 010°58'1616.2
2016-May-21 19:33N 58°38' E 010°50'1616.1
2016-May-21 18:33N 58°54' E 010°43'1616.2
2016-May-21 17:33N 59°10' E 010°38'1716.7
2016-May-21 16:33N 59°26' E 010°33'1414.5
2016-May-21 15:34N 59°41' E 010°37'13 1.6
2016-May-21 07:20N 59°53' E 010°41'1013.5
2016-May-21 06:33N 59°43' E 010°35'1414.2
2016-May-21 05:33N 59°29' E 010°35'1616.4
2016-May-21 04:34N 59°13' E 010°38'1616.2
2016-May-21 03:33N 58°57' E 010°43'1615.9
2016-May-21 02:33N 58°41' E 010°46'1616.2
2016-May-21 01:33N 58°26' E 010°55'1616.1
2016-May-21 00:34N 58°10' E 011°05'1615.9
2016-May-20 23:33N 57°55' E 011°15'1615.9
2016-May-20 22:33N 57°41' E 011°25'1615.6
2016-May-20 21:34N 57°25' E 011°31'1615.5
2016-May-20 20:33N 57°11' E 011°40'1616.1
2016-May-20 19:33N 56°55' E 011°49'1616.1
2016-May-20 18:33N 56°41' E 012°04'1616.2
2016-May-20 17:33N 56°27' E 012°17'1716.5
2016-May-20 16:33N 56°12' E 012°29'1717.1
2016-May-20 15:34N 55°57' E 012°43'1514.8
2016-May-20 14:33N 55°42' E 012°36'0 0.4
2016-May-20 13:32N 55°42' E 012°36'0 0.0
2016-May-20 12:32N 55°42' E 012°36'0 0.0
2016-May-20 11:32N 55°42' E 012°36'0 0.0
2016-May-20 10:32N 55°42' E 012°36'0 0.0
2016-May-20 09:32N 55°42' E 012°36'0 0.0
2016-May-20 08:32N 55°42' E 012°36'0 0.3
2016-May-20 07:34N 55°42' E 012°36'1212.2
2016-May-20 06:33N 55°54' E 012°39'1313.3
2016-May-20 05:33N 56°07' E 012°32'2114.9
2016-May-20 04:11N 56°26' E 012°18'1015.3
2016-May-20 03:34N 56°35' E 012°13'1615.9
2016-May-20 02:34N 56°50' E 012°04'1616.0
2016-May-20 01:33N 57°06' E 011°55'1616.1
2016-May-20 00:34N 57°21' E 011°44'1717.0
2016-May-19 23:34N 57°35' E 011°27'1817.6
2016-May-19 22:34N 57°51' E 011°16'1716.9
2016-May-19 21:34N 58°08' E 011°07'1716.6
2016-May-19 20:34N 58°23' E 010°58'1716.6
2016-May-19 19:34N 58°39' E 010°49'1716.9
2016-May-19 18:34N 58°56' E 010°43'1716.7
2016-May-19 17:34N 59°13' E 010°37'1616.0
2016-May-19 16:33N 59°28' E 010°34'1413.9
2016-May-19 15:33N 59°42' E 010°35'11 1.4
2016-May-19 07:18N 59°53' E 010°41'1013.9
2016-May-19 06:34N 59°44' E 010°34'1414.5
2016-May-19 05:34N 59°29' E 010°35'1716.6
2016-May-19 04:34N 59°13' E 010°38'1616.4
2016-May-19 03:34N 58°56' E 010°37'1616.2
2016-May-19 02:34N 58°40' E 010°33'1616.1
2016-May-19 01:34N 58°25' E 010°41'1616.4
2016-May-19 00:34N 58°09' E 010°52'1716.9
2016-May-18 23:34N 57°53' E 011°02'1616.0
2016-May-18 22:34N 57°39' E 011°15'1515.4
2016-May-18 21:34N 57°26' E 011°31'1616.2
2016-May-18 20:34N 57°10' E 011°39'1616.1
2016-May-18 19:34N 56°55' E 011°49'1615.9
2016-May-18 18:34N 56°41' E 012°03'1615.6
2016-May-18 17:34N 56°27' E 012°16'1716.8
2016-May-18 16:33N 56°12' E 012°29'1716.6
2016-May-18 15:34N 55°57' E 012°43'1514.9
2016-May-18 14:33N 55°43' E 012°37'1 1.1
2016-May-18 13:31N 55°42' E 012°36'0 0.0
2016-May-18 12:31N 55°42' E 012°36'0 0.0
2016-May-18 11:31N 55°42' E 012°36'0 0.0
2016-May-18 10:31N 55°42' E 012°36'0 0.0
2016-May-18 09:31N 55°42' E 012°36'0 0.0
2016-May-18 08:31N 55°42' E 012°36'0 0.3
2016-May-18 07:33N 55°42' E 012°36'1110.5
2016-May-18 06:34N 55°53' E 012°40'1414.2
2016-May-18 05:33N 56°06' E 012°33'3215.9
2016-May-18 03:34N 56°36' E 012°15'1716.6
2016-May-18 02:34N 56°53' E 012°07'1616.3
2016-May-18 01:34N 57°08' E 011°57'1616.1
2016-May-18 00:34N 57°22' E 011°42'1717.1
2016-May-17 23:34N 57°37' E 011°27'1717.3
2016-May-17 22:34N 57°53' E 011°15'1616.4
2016-May-17 21:34N 58°09' E 011°06'1616.4
2016-May-17 20:33N 58°24' E 010°57'1616.3
2016-May-17 19:34N 58°40' E 010°48'1817.7
2016-May-17 18:34N 58°57' E 010°42'1717.2
2016-May-17 17:34N 59°14' E 010°37'1716.9
2016-May-17 16:34N 59°31' E 010°36'1515.4
2016-May-17 15:33N 59°47' E 010°33'8 0.9
2016-May-17 07:08N 59°54' E 010°41'916.3
2016-May-17 06:33N 59°45' E 010°35'1413.5
2016-May-17 05:33N 59°31' E 010°35'1616.2
2016-May-17 04:33N 59°15' E 010°38'1716.6
2016-May-17 03:33N 58°59' E 010°42'1515.4
2016-May-17 02:33N 58°43' E 010°47'1615.9
2016-May-17 01:33N 58°28' E 010°54'1616.2
2016-May-17 00:33N 58°12' E 011°03'1615.8
2016-May-16 23:33N 57°57' E 011°12'1616.1
2016-May-16 22:33N 57°42' E 011°21'1616.5
2016-May-16 21:34N 57°26' E 011°30'1716.8
2016-May-16 20:33N 57°10' E 011°40'1717.5
2016-May-16 19:33N 56°54' E 011°50'1717.3
2016-May-16 18:33N 56°39' E 012°07'1817.1
2016-May-16 17:29N 56°22' E 012°21'1516.5
2016-May-16 16:33N 56°08' E 012°32'1414.4
2016-May-16 15:33N 55°56' E 012°44'1313.2
2016-May-16 14:33N 55°43' E 012°38'1 1.3
2016-May-16 13:31N 55°42' E 012°36'0 0.0
2016-May-16 12:31N 55°42' E 012°36'0 0.0
2016-May-16 11:31N 55°42' E 012°36'0 0.0
2016-May-16 10:31N 55°42' E 012°36'0 0.0
2016-May-16 09:31N 55°42' E 012°36'0 0.0
2016-May-16 08:31N 55°42' E 012°36'1 0.8
2016-May-16 07:33N 55°43' E 012°37'1111.3
2016-May-16 06:33N 55°54' E 012°40'1413.8
2016-May-16 05:34N 56°07' E 012°32'3215.8
2016-May-16 03:33N 56°37' E 012°13'1616.1
2016-May-16 02:33N 56°52' E 012°05'1615.9
2016-May-16 01:33N 57°08' E 011°56'1616.0
2016-May-16 00:34N 57°22' E 011°42'1615.9
2016-May-15 23:33N 57°35' E 011°26'1616.1
2016-May-15 22:33N 57°50' E 011°14'1616.0
2016-May-15 21:33N 58°05' E 011°08'1616.1
2016-May-15 20:33N 58°21' E 010°59'1616.2
2016-May-15 19:34N 58°36' E 010°50'1616.1
2016-May-15 18:33N 58°52' E 010°44'1716.7
2016-May-15 17:34N 59°09' E 010°39'1717.4
2016-May-15 16:33N 59°26' E 010°33'1515.5
2016-May-15 15:34N 59°41' E 010°36'13 1.5
2016-May-15 07:21N 59°53' E 010°41'1114.0
2016-May-15 06:33N 59°43' E 010°35'1414.4
2016-May-15 05:33N 59°28' E 010°34'1615.9
2016-May-15 04:34N 59°13' E 010°39'1615.6
2016-May-15 03:34N 58°57' E 010°42'1515.2
2016-May-15 02:34N 58°42' E 010°45'  

Dump ship's entire track history